Cal Pinellet - temp/vent/humi/press dades any
08/02/2023 3:33 TEMP RatxaVent HUMITAT PRESSIÓ
2023 min MAX min MAX min MAX min MAX
44943 -7.7 17.7 0 74 5 78 991 1036
Febrer -5.7 13.8 0 50 32 72 1025 1035
Març 0.0 0.0 0 0 0 0 0 0
Abril 0.0 0.0 0 0 0 0 0 0
Maig 0.0 0.0 0 0 0 0 0 0
Juny 0.0 0.0 0 0 0 0 0 0
Juliol 0.0 0.0 0 0 0 0 0 0
Agost 0.0 0.0 0 0 0 0 0 0
Setem. 0.0 0.0 0 0 0 0 0 0
Octubre 0.0 0.0 0 0 0 0 0 0
Novemb. 0.0 0.0 0 0 0 0 0 0
Desemb. 0.0 0.0 0 0 0 0 0 0
data.valor.extrem 23/01/23 01/01/23 17/01/23 17/01/23 04/01/23
mín màx màx mín màx
valors extrems -7.7 17.7 74.2 991 1036
  TEMP   RatxaVent HUMITAT PRESSIÓ Tª mitja
data min MAX min MAX min MAX min MAX mitja
07/02/23 1.1 7.6 0 50.0 47 64 1025 1029 4.3
06/02/23 -2.1 10.6 0 40.3 35 72 1027 1031 3.7
05/02/23 -4.4 11.7 0 24.1 39 67 1030 1035 2.5
04/02/23 -4.9 13.8 0 28.8 32 68 1028 1033 3.3
03/02/23 -5.1 13.7 0 24.1 33 69 1031 1035 2.8
02/02/23 -5.7 11.7 0 22.7 37 69 1029 1033 1.6
01/02/23 -5.6 12.1 0 16.2 38 70 1028 1032 1.5
31/01/23 -5.7 9.7 0 20.9 37 70 1028 1031 0.8
30/01/23 -7.3 6.4 0 27.4 45 68 1027 1031 -1.1
29/01/23 -6.2 10.2 0 19.4 26 68 1024 1030 0.6
28/01/23 -5.9 5.9 0 20.9 44 70 1018 1024 -0.5
27/01/23 -7.1 7.1 0 19.4 43 70 1014 1018 -1.1
26/01/23 -6.4 7.1 0 20.9 46 69 1015 1023 -1.3
25/01/23 -3.4 3.2 0 28.8 51 67 1022 1029 0.0
24/01/23 -3.1 4.2 0 14.4 47 65 1025 1029 -0.2
23/01/23 -7.7 6.4 0 19.4 32 63 1020 1025 -1.7
22/01/23 -7.6 8.4 0 32.0 14 60 1019 1024 -1.1
21/01/23 -7.6 7.3 0 51.5 15 62 1017 1021 0.1
20/01/23 -2.6 10.7 0 50.0 10 62 1004 1020 4.5
19/01/23 -2.8 7.6 0 50.0 43 66 1004 1016 3.0
18/01/23 -1.1 9.4 0 46.8 5 70 995 1010 4.0
17/01/23 3.1 9.7 0 74.2 44 76 991 998 7.0
16/01/23 0.2 8.9 0 53.3 59 74 998 1018 4.8
15/01/23 1.3 9.8 0 30.6 63 77 1016 1022 5.5
14/01/23 -1.3 12.7 0 28.8 46 75 1022 1030 4.1
13/01/23 -0.4 14.7 0 13.0 39 77 1026 1030 4.4
12/01/23 -1.2 12.6 0 24.1 46 77 1027 1032 4.1
11/01/23 -1.1 11.2 0 14.4 56 77 1025 1030 3.5
10/01/23 -1.6 11.8 0 19.4 43 71 1024 1031 3.9
09/01/23 5.3 12.7 0 46.8 44 77 1012 1024 9.0
08/01/23 0.7 10.9 0 20.9 65 77 1011 1021 6.7
07/01/23 -3.6 9.4 0 35.3 48 76 1021 1027 1.1
06/01/23 -2.4 15.7 0 17.6 37 77 1025 1028 3.3
05/01/23 -1.9 12.8 0 19.4 42 78 1028 1035 3.8
04/01/23 -0.6 14.2 0 17.6 54 78 1033 1036 4.4
03/01/23 4.8 10.6 0 19.4 61 76 1028 1034 8.0
02/01/23 0.5 13.0 0 11.2 45 68 1025 1028 6.1
01/01/23 0.4 17.7 0 11.2 33 73 1025 1028 6.6